• Join FlightAware (Why Join?)
  • Login
  • US Flag 
12:14PM EST


 

Airport Tracker/Info


-or-


 

Live Flight TrackerFlight Track Log ✈ SKW4733 ✈ 10-Mar-2014 ✈ KLAX - KSEA

Flight Track Log - Related Links

Times and Time Zones

All times are in EDT time to prevent confusion due to time zone crossing. See the SKW4733 flight status page for this flight to view local times or setup timezone preferences in your user account.

Time Position Orientation Groundspeed Altitude Reporting Facility
EDT Latitude Longitude Course Direction KTS MPH feet Rate Location/Type
10:06AM 33.9500 -118.5000 349° North 201 231 2,700  Level Southern California TRACON
10:07AM 33.9356 -118.5961 260° West 238 274 5,300 2,512 Climbing Los Angeles Center
10:08AM 34.4187 -118.5214 349° North  Level Estimated
10:08AM 33.9667 -118.6717 296° West 268 308 8,100  Level Los Angeles Center
10:09AM 34.5377 -118.5500 349° North  Level Estimated
10:09AM 34.0394 -118.6839 352° North 281 323 9,000  Level Los Angeles Center
10:10AM 34.6567 -118.5786 349° North  Level Estimated
10:10AM 34.1108 -118.6569 17° North 283 326 9,000  Level Los Angeles Center
10:11AM 34.7711 -118.6062 349° North  Level Estimated
10:11AM 34.1864 -118.6314 16° North 288 331 9,300  Level Los Angeles Center
10:12AM 34.2628 -118.6536 346° North 285 328 11,700 2,516 Climbing Los Angeles Center
10:13AM 34.3614 -118.6800 348° North 300 345 14,500 2,226 Climbing Los Angeles Center
10:14AM 34.4514 -118.7028 348° North 327 376 16,300 1,452 Climbing Los Angeles Center
10:15AM 34.5486 -118.7333 345° North 362 417 17,500 1,366 Climbing Los Angeles Center
10:16AM 34.6464 -118.7850 337° Northwest 384 442 19,100 1,561 Climbing Los Angeles Center
10:17AM 34.7483 -118.8353 338° Northwest 392 451 20,700 1,597 Climbing Los Angeles Center
10:18AM 34.8547 -118.8817 340° North 401 461 22,400 1,887 Climbing Los Angeles Center
10:19AM 34.9883 -118.9244 345° North 419 482 24,600 1,951 Climbing Los Angeles Center
10:20AM 35.0964 -118.9622 344° North 408 470 26,400 1,366 Climbing Los Angeles Center
10:21AM 35.2086 -119.0006 344° North 417 480 27,400 968 Climbing Los Angeles Center
10:22AM 35.3269 -119.0406 345° North 435 501 28,400 919 Climbing Los Angeles Center
10:23AM 35.4450 -119.0836 343° North 443 510 29,300 919 Climbing Los Angeles Center
10:24AM 35.5636 -119.1311 342° North 448 516 30,300 1,258 Climbing Los Angeles Center
10:25AM 35.7053 -119.1931 340° North 451 519 31,900 1,500 Climbing Los Angeles Center
10:26AM 35.8206 -119.2447 340° North 446 513 33,400 1,237 Climbing Los Angeles Center
10:27AM 35.8881 -119.2744 340° North 446 513 33,900 375 Climbing Oakland Center
10:28AM 36.0031 -119.3253 340° North 443 510 34,000 49 Climbing Oakland Center
10:29AM 36.1214 -119.3769 341° North 450 518 34,000  Level Oakland Center
10:30AM 36.2392 -119.4292 340° North 453 521 34,000  Level Oakland Center
10:31AM 36.3583 -119.4803 341° North 455 524 34,000  Level Oakland Center
10:32AM 36.4800 -119.5372 339° North 465 535 34,000  Level Oakland Center
10:33AM 36.6008 -119.5903 341° North 464 534 34,000  Level Oakland Center
10:34AM 36.7197 -119.6439 340° North 457 526 34,000  Level Oakland Center
10:35AM 36.8625 -119.7100 340° North 457 526 34,000  Level Oakland Center
10:36AM 36.9822 -119.7628 341° North 458 527 34,000  Level Oakland Center
10:37AM 37.1086 -119.8028 346° North 467 537 34,000  Level Oakland Center
10:38AM 37.2200 -119.8350 347° North 468 539 34,000  Level Oakland Center
10:39AM 37.3731 -119.8781 347° North 470 541 34,000  Level Oakland Center
10:40AM 37.5014 -119.9147 347° North 471 542 34,000  Level Oakland Center
10:41AM 37.6286 -119.9511 347° North 471 542 34,000  Level Oakland Center
10:42AM 37.7564 -119.9875 347° North 472 543 34,000  Level Oakland Center
10:43AM 37.8839 -120.0247 347° North 472 543 34,000  Level Oakland Center
10:44AM 38.0119 -120.0600 348° North 472 543 34,000  Level Oakland Center
10:45AM 38.1383 -120.0972 347° North 470 541 34,000  Level Oakland Center
10:46AM 38.2661 -120.1353 347° North 472 543 34,000  Level Oakland Center
10:47AM 38.3911 -120.1717 347° North 466 536 34,000  Level Oakland Center
10:48AM 38.5194 -120.2086 347° North 472 543 34,000  Level Oakland Center
10:49AM 38.6714 -120.2542 347° North 470 541 34,000  Level Oakland Center
10:50AM 38.7975 -120.2908 347° North 468 539 34,000  Level Oakland Center
10:51AM 38.9258 -120.3286 347° North 474 545 34,000  Level Oakland Center
10:52AM 39.0514 -120.3669 347° North 467 537 34,000  Level Oakland Center
10:53AM 39.1781 -120.4044 347° North 469 540 34,000  Level Oakland Center
10:54AM 39.3069 -120.4428 347° North 475 547 34,000  Level Oakland Center
10:55AM 39.4339 -120.4817 347° North 471 542 34,000  Level Oakland Center
10:56AM 39.5611 -120.5194 347° North 471 542 34,000  Level Oakland Center
10:57AM 39.6869 -120.5581 347° North 466 536 34,000  Level Oakland Center
10:58AM 39.8406 -120.6044 347° North 473 544 34,000  Level Oakland Center
10:59AM 39.9692 -120.6433 347° North 473 544 34,000  Level Oakland Center
11:00AM 40.0856 -120.6806 346° North 478 550 34,000  Level Oakland Center
11:02AM 40.2161 -120.7197 347° North 482 555 34,000  Level Oakland Center
11:03AM 40.3453 -120.7583 347° North 480 552 34,000  Level Oakland Center
11:04AM 40.5011 -120.8083 346° North 481 554 34,000  Level Oakland Center
11:05AM 40.6058 -120.8417 346° North 477 549 34,000  Level Oakland Center
11:05AM 40.7383 -120.8800 348° North 477 549 34,000  Level Seattle Center
11:06AM 40.8656 -120.9222 346° North 474 545 34,000  Level Seattle Center
11:07AM 40.9947 -120.9636 346° North 477 549 34,000  Level Seattle Center
11:09AM 41.1236 -121.0056 346° North 479 551 34,000  Level Seattle Center
11:10AM 41.2547 -121.0469 347° North 484 557 34,000  Level Seattle Center
11:11AM 41.3850 -121.0886 347° North 481 554 34,000  Level Seattle Center
11:12AM 41.5147 -121.1303 346° North 483 556 34,000  Level Seattle Center
11:13AM 41.6661 -121.1797 346° North 470 541 34,000  Level Seattle Center
11:14AM 41.7889 -121.2206 346° North 460 529 34,000  Level Seattle Center
11:15AM 41.9142 -121.2603 347° North 464 534 34,000  Level Seattle Center
11:16AM 42.0369 -121.3019 346° North 461 531 34,000  Level Seattle Center
11:17AM 42.1603 -121.3425 346° North 461 531 34,000  Level Seattle Center
11:18AM 42.2833 -121.3825 346° North 460 529 34,000  Level Seattle Center
11:19AM 42.4064 -121.4231 346° North 460 529 34,000  Level Seattle Center
11:20AM 42.5297 -121.4642 346° North 461 531 34,000  Level Seattle Center
11:21AM 42.6517 -121.5036 347° North 455 524 34,000  Level Seattle Center
11:22AM 42.7742 -121.5439 346° North 456 525 34,000  Level Seattle Center
11:23AM 42.8961 -121.5847 346° North 453 521 34,000  Level Seattle Center
11:24AM 43.0422 -121.6339 346° North 453 521 34,000  Level Seattle Center
11:25AM 43.1628 -121.6733 347° North 449 517 34,000  Level Seattle Center
11:26AM 43.2842 -121.7156 346° North 449 517 34,000  Level Seattle Center
11:27AM 43.4053 -121.7567 346° North 450 518 34,000  Level Seattle Center
11:28AM 43.5303 -121.7989 346° North 457 526 34,000  Level Seattle Center
11:29AM 43.6547 -121.8422 346° North 462 532 34,000  Level Seattle Center
11:30AM 43.7664 -121.8803 346° North 459 528 34,000  Level Seattle Center
11:31AM 43.9153 -121.9308 346° North 459 528 34,000  Level Seattle Center
11:32AM 44.0372 -121.9731 346° North 453 521 34,000  Level Seattle Center
11:33AM 44.1600 -122.0181 345° North 457 526 34,000  Level Seattle Center
11:34AM 44.2850 -122.0614 346° North 461 531 34,000  Level Seattle Center
11:35AM 44.4092 -122.1050 346° North 462 532 34,000  Level Seattle Center
11:36AM 44.5328 -122.1497 346° North 462 532 34,000  Level Seattle Center
11:37AM 44.6569 -122.1947 346° North 456 525 34,000  Level Seattle Center
11:38AM 44.7800 -122.2394 346° North 454 522 34,000  Level Seattle Center
11:39AM 44.9086 -122.2867 345° North 450 518 34,000  Level Seattle Center
11:40AM 45.0286 -122.3297 346° North 449 517 34,000  Level Seattle Center
11:41AM 45.1481 -122.3719 346° North 446 513 34,000  Level Seattle Center
11:42AM 45.2672 -122.4150 346° North 445 512 34,000  Level Seattle Center
11:43AM 45.3856 -122.4578 346° North 443 510 34,000  Level Seattle Center
11:44AM 45.5086 -122.5044 345° North 453 521 34,000  Level Seattle Center
11:45AM 45.6303 -122.5494 345° North 455 524 34,000 -49 Level Seattle Center
11:46AM 45.7494 -122.5947 345° North 449 517 33,900  Descending Seattle Center
11:47AM 45.8700 -122.6214 351° North 444 511 34,000 -893 Climbing Seattle Center
11:48AM 45.9903 -122.6506 350° North 441 507 32,100 -2,132 Descending Seattle Center
11:49AM 46.1072 -122.6814 350° North 431 496 29,700 -2,508 Descending Seattle Center
11:50AM 46.2378 -122.6731 North 413 475 27,000 -2,410 Descending Seattle Center
11:51AM 46.3456 -122.6564 North 393 452 24,800 -2,066 Descending Seattle Center
11:52AM 46.4508 -122.6400 North 382 440 22,800 -1,983 Descending Seattle Center
11:53AM 46.5558 -122.6244 North 380 437 20,800 -1,983 Descending Seattle Center
11:54AM 46.6569 -122.6075 North 369 425 18,800 -2,190 Descending Seattle Center
11:54AM 46.6686 -122.6072 North 368 423 18,500 -2,066 Descending Seattle Center
11:55AM 46.7664 -122.5919 North 365 420 16,700 -1,890 Descending Seattle Center
11:55AM 46.7881 -122.5881 North 353 406 16,200 -1,770 Descending Seattle Center
11:56AM 46.8597 -122.5761 North 336 387 14,900 -1,770 Descending Seattle Center
11:56AM 46.8800 -122.5742 North 330 380 14,400 -1,574 Descending Seattle Center
11:57AM 46.9481 -122.5583 North 323 372 13,300 -1,343 Descending Seattle Center
11:57AM 46.9808 -122.5422 19° North 314 361 12,900 -1,200 Descending Seattle Center
11:58AM 47.0381 -122.5181 16° North 315 362 12,100 -1,200 Descending Seattle Center
11:58AM 47.0631 -122.5075 16° North 310 357 11,700 -1,065 Descending Seattle Center
11:59AM 47.1203 -122.4933 10° North 303 349 11,000 -982 Descending Seattle Center
11:59AM 47.1392 -122.4922 North 294 338 10,800 -900 Descending Seattle Center
12:00PM 47.1997 -122.4786 North 287 330 10,100 -984 Descending Seattle Center
12:00PM 47.2172 -122.4758 North 283 326 9,800 -984 Descending Seattle Center
12:01PM 47.2778 -122.4672 North 284 327 9,100 -873 Descending Seattle Center
12:01PM 47.2900 -122.4653 North 283 326 9,000 -689 Descending Seattle Center
12:02PM 47.3525 -122.4561 North 270 311 8,400 -700 Descending Seattle Center
12:02PM 47.3647 -122.4539 North 268 308 8,300 -892 Descending Seattle Center
12:03PM 47.4414 -122.4578 358° North 243 280 7,300 -1,043 Descending Seattle Center
12:04PM 47.4939 -122.4550 North 222 255 6,300 -1,200 Descending Seattle Center
12:04PM 47.4986 -122.4558 353° North 213 245 6,200 -1,500 Descending Seattle Center
12:05PM 47.5508 -122.4550 North 206 237 4,800 -1,519 Descending Seattle Center
12:06PM 47.5744 -122.4567 357° North 203 234 4,200 -1,475 Descending Seattle Center
12:06PM 47.6061 -122.4414 18° North 211 243 3,300 -1,256 Descending Seattle Center
12:06PM 47.6089 -122.4344 59° Northeast 218 251 3,300 -98 Level Seattle Center
12:07PM 47.6114 -122.3542 87° East 213 245 3,200 -111 Descending Seattle Center
12:07PM 47.6108 -122.3544 199° South 215 247 3,200 -689 Level Seattle Center
12:08PM 47.5650 -122.3153 150° Southeast 211 243 2,500 -806 Descending Seattle Center
12:08PM 47.5611 -122.3164 191° South 210 242 2,300 -984 Descending Seattle Center
12:09PM 47.5150 -122.3181 181° South 178 205 1,500 -885 Descending Seattle Center
12:09PM 47.5086 -122.3192 187° South 154 177 1,400 -800 Descending Seattle Center
12:10PM 47.4756 -122.3175 178° South 145 167 700 -800 Descending Seattle Center
12:10PM 47.4703 -122.3172 178° South 131 151 600 -295 Descending Seattle Center
12:11PM 47.4381 -122.3186 182° South 139 160 400 -222 Descending Seattle Center